sensor_id;sensor_type;location;lat;lon;timestamp;pressure;altitude;pressure_sealevel;temperature;humidity
16613;BME280;8419;52.358;9.752;2023-04-23T00:01:27;99999.00;;;25.80;36.45
16613;BME280;8419;52.358;9.752;2023-04-23T00:04:15;100003.00;;;25.69;36.55
16613;BME280;8419;52.358;9.752;2023-04-23T00:07:06;99986.00;;;25.72;36.53
16613;BME280;8419;52.358;9.752;2023-04-23T00:09:57;100001.00;;;25.71;36.49
16613;BME280;8419;52.358;9.752;2023-04-23T00:12:44;99986.00;;;25.75;36.44
16613;BME280;8419;52.358;9.752;2023-04-23T00:15:31;99989.00;;;25.84;36.25
16613;BME280;8419;52.358;9.752;2023-04-23T00:18:16;99987.00;;;25.86;36.19
16613;BME280;8419;52.358;9.752;2023-04-23T00:21:02;99983.00;;;25.86;36.15
16613;BME280;8419;52.358;9.752;2023-04-23T00:23:47;99984.00;;;25.84;36.20
16613;BME280;8419;52.358;9.752;2023-04-23T00:26:33;99979.00;;;25.83;36.21
16613;BME280;8419;52.358;9.752;2023-04-23T00:29:18;99978.00;;;25.77;36.35
16613;BME280;8419;52.358;9.752;2023-04-23T00:32:07;99978.00;;;25.77;36.34
16613;BME280;8419;52.358;9.752;2023-04-23T00:34:53;99975.00;;;25.65;36.56
16613;BME280;8419;52.358;9.752;2023-04-23T00:37:39;99974.00;;;25.69;36.46
16613;BME280;8419;52.358;9.752;2023-04-23T00:40:25;99973.00;;;25.74;36.39
16613;BME280;8419;52.358;9.752;2023-04-23T00:43:10;99974.00;;;25.76;36.35
16613;BME280;8419;52.358;9.752;2023-04-23T00:45:56;99969.00;;;25.73;36.37
16613;BME280;8419;52.358;9.752;2023-04-23T00:48:42;99965.00;;;25.72;36.37
16613;BME280;8419;52.358;9.752;2023-04-23T00:51:30;99967.00;;;25.73;36.38
16613;BME280;8419;52.358;9.752;2023-04-23T00:54:16;99971.00;;;25.74;36.36
16613;BME280;8419;52.358;9.752;2023-04-23T00:57:02;99963.00;;;25.68;36.46
16613;BME280;8419;52.358;9.752;2023-04-23T00:59:48;99966.00;;;25.66;36.52
16613;BME280;8419;52.358;9.752;2023-04-23T01:02:34;99967.00;;;25.62;36.56
16613;BME280;8419;52.358;9.752;2023-04-23T01:05:23;99960.00;;;25.61;36.56
16613;BME280;8419;52.358;9.752;2023-04-23T01:08:09;99964.00;;;25.60;36.60
16613;BME280;8419;52.358;9.752;2023-04-23T01:11:00;99961.00;;;25.55;36.69
16613;BME280;8419;52.358;9.752;2023-04-23T01:13:46;99954.00;;;25.54;36.72
16613;BME280;8419;52.358;9.752;2023-04-23T01:16:31;99969.00;;;25.55;36.67
16613;BME280;8419;52.358;9.752;2023-04-23T01:19:16;99972.00;;;25.60;36.60
16613;BME280;8419;52.358;9.752;2023-04-23T01:24:48;99987.00;;;25.53;36.87
16613;BME280;8419;52.358;9.752;2023-04-23T01:27:34;99984.00;;;25.35;37.14
16613;BME280;8419;52.358;9.752;2023-04-23T01:30:20;99986.00;;;24.79;37.77
16613;BME280;8419;52.358;9.752;2023-04-23T01:33:07;99991.00;;;24.41;38.31
16613;BME280;8419;52.358;9.752;2023-04-23T01:35:54;99989.00;;;24.30;38.67
16613;BME280;8419;52.358;9.752;2023-04-23T01:38:52;99990.00;;;24.26;38.65
16613;BME280;8419;52.358;9.752;2023-04-23T01:41:39;99990.00;;;24.23;38.78
16613;BME280;8419;52.358;9.752;2023-04-23T01:44:26;99996.00;;;23.95;39.52
16613;BME280;8419;52.358;9.752;2023-04-23T01:47:11;100000.00;;;23.70;39.93
16613;BME280;8419;52.358;9.752;2023-04-23T01:49:57;100001.00;;;23.49;40.40
16613;BME280;8419;52.358;9.752;2023-04-23T01:52:42;99996.00;;;23.36;40.68
16613;BME280;8419;52.358;9.752;2023-04-23T01:55:29;99996.00;;;23.30;40.87
16613;BME280;8419;52.358;9.752;2023-04-23T01:58:16;100003.00;;;23.31;40.81
16613;BME280;8419;52.358;9.752;2023-04-23T02:01:02;100002.00;;;23.27;40.94
16613;BME280;8419;52.358;9.752;2023-04-23T02:03:49;99999.00;;;23.26;41.22
16613;BME280;8419;52.358;9.752;2023-04-23T02:06:34;100005.00;;;23.23;41.20
16613;BME280;8419;52.358;9.752;2023-04-23T02:09:20;100003.00;;;23.20;41.27
16613;BME280;8419;52.358;9.752;2023-04-23T02:12:06;99999.00;;;23.22;41.22
16613;BME280;8419;52.358;9.752;2023-04-23T02:14:53;100004.00;;;23.25;41.25
16613;BME280;8419;52.358;9.752;2023-04-23T02:17:38;100008.00;;;23.24;41.11
16613;BME280;8419;52.358;9.752;2023-04-23T02:20:23;99999.00;;;23.06;41.38
16613;BME280;8419;52.358;9.752;2023-04-23T02:23:09;99997.00;;;22.92;41.47
16613;BME280;8419;52.358;9.752;2023-04-23T02:25:54;99999.00;;;22.83;41.43
16613;BME280;8419;52.358;9.752;2023-04-23T02:28:39;100011.00;;;22.87;41.34
16613;BME280;8419;52.358;9.752;2023-04-23T02:31:24;100006.00;;;22.89;41.10
16613;BME280;8419;52.358;9.752;2023-04-23T02:34:10;100012.00;;;22.88;40.92
16613;BME280;8419;52.358;9.752;2023-04-23T02:36:55;100011.00;;;22.87;40.84
16613;BME280;8419;52.358;9.752;2023-04-23T02:39:41;100023.00;;;22.85;40.77
16613;BME280;8419;52.358;9.752;2023-04-23T02:42:27;100022.00;;;22.81;40.75
16613;BME280;8419;52.358;9.752;2023-04-23T02:45:12;100022.00;;;22.74;40.79
16613;BME280;8419;52.358;9.752;2023-04-23T02:47:58;100017.00;;;22.84;40.56
16613;BME280;8419;52.358;9.752;2023-04-23T02:50:43;100023.00;;;22.83;40.51
16613;BME280;8419;52.358;9.752;2023-04-23T02:53:30;100021.00;;;22.79;40.50
16613;BME280;8419;52.358;9.752;2023-04-23T02:56:16;100030.00;;;22.73;40.58
16613;BME280;8419;52.358;9.752;2023-04-23T02:59:01;100018.00;;;22.69;40.57
16613;BME280;8419;52.358;9.752;2023-04-23T03:01:47;100022.00;;;22.60;40.73
16613;BME280;8419;52.358;9.752;2023-04-23T03:04:32;100016.00;;;22.51;40.83
16613;BME280;8419;52.358;9.752;2023-04-23T03:07:17;100021.00;;;22.54;40.77
16613;BME280;8419;52.358;9.752;2023-04-23T03:10:06;100029.00;;;22.62;40.53
16613;BME280;8419;52.358;9.752;2023-04-23T03:12:52;100023.00;;;22.59;40.58
16613;BME280;8419;52.358;9.752;2023-04-23T03:15:37;100029.00;;;22.59;40.56
16613;BME280;8419;52.358;9.752;2023-04-23T03:18:23;100035.00;;;22.61;40.51
16613;BME280;8419;52.358;9.752;2023-04-23T03:21:08;100036.00;;;22.62;40.57
16613;BME280;8419;52.358;9.752;2023-04-23T03:23:54;100035.00;;;22.66;40.49
16613;BME280;8419;52.358;9.752;2023-04-23T03:26:43;100042.00;;;22.61;40.57
16613;BME280;8419;52.358;9.752;2023-04-23T03:29:28;100033.00;;;22.63;40.54
16613;BME280;8419;52.358;9.752;2023-04-23T03:32:13;100036.00;;;22.57;40.69
16613;BME280;8419;52.358;9.752;2023-04-23T03:34:58;100036.00;;;22.57;40.68
16613;BME280;8419;52.358;9.752;2023-04-23T03:37:44;100034.00;;;22.57;40.70
16613;BME280;8419;52.358;9.752;2023-04-23T03:40:29;100035.00;;;22.60;40.66
16613;BME280;8419;52.358;9.752;2023-04-23T03:43:15;100043.00;;;22.60;40.65
16613;BME280;8419;52.358;9.752;2023-04-23T03:46:02;100036.00;;;22.63;40.59
16613;BME280;8419;52.358;9.752;2023-04-23T03:48:47;100044.00;;;22.65;40.55
16613;BME280;8419;52.358;9.752;2023-04-23T03:51:33;100046.00;;;22.60;40.61
16613;BME280;8419;52.358;9.752;2023-04-23T03:54:18;100053.00;;;22.57;40.70
16613;BME280;8419;52.358;9.752;2023-04-23T03:57:03;100050.00;;;22.54;40.78
16613;BME280;8419;52.358;9.752;2023-04-23T03:59:50;100052.00;;;22.57;40.76
16613;BME280;8419;52.358;9.752;2023-04-23T04:02:35;100052.00;;;22.56;40.75
16613;BME280;8419;52.358;9.752;2023-04-23T04:05:21;100059.00;;;22.57;40.71
16613;BME280;8419;52.358;9.752;2023-04-23T04:08:07;100055.00;;;22.59;40.70
16613;BME280;8419;52.358;9.752;2023-04-23T04:10:52;100063.00;;;22.54;40.73
16613;BME280;8419;52.358;9.752;2023-04-23T04:13:38;100056.00;;;22.46;40.84
16613;BME280;8419;52.358;9.752;2023-04-23T04:16:24;100065.00;;;22.45;40.81
16613;BME280;8419;52.358;9.752;2023-04-23T04:19:09;100070.00;;;22.42;40.83
16613;BME280;8419;52.358;9.752;2023-04-23T04:21:55;100073.00;;;22.40;40.86
16613;BME280;8419;52.358;9.752;2023-04-23T04:24:41;100076.00;;;22.39;40.79
16613;BME280;8419;52.358;9.752;2023-04-23T04:27:27;100084.00;;;22.35;40.80
16613;BME280;8419;52.358;9.752;2023-04-23T04:30:13;100083.00;;;22.32;40.76
16613;BME280;8419;52.358;9.752;2023-04-23T04:33:00;100082.00;;;22.26;40.78
16613;BME280;8419;52.358;9.752;2023-04-23T04:35:45;100087.00;;;22.20;40.86
16613;BME280;8419;52.358;9.752;2023-04-23T04:38:32;100082.00;;;22.10;40.92
16613;BME280;8419;52.358;9.752;2023-04-23T04:41:18;100089.00;;;22.01;40.96
16613;BME280;8419;52.358;9.752;2023-04-23T04:44:03;100092.00;;;22.02;40.96
16613;BME280;8419;52.358;9.752;2023-04-23T04:46:48;100098.00;;;22.04;40.96
16613;BME280;8419;52.358;9.752;2023-04-23T04:49:34;100103.00;;;21.93;41.04
16613;BME280;8419;52.358;9.752;2023-04-23T04:52:20;100102.00;;;21.88;41.02
16613;BME280;8419;52.358;9.752;2023-04-23T04:55:08;100097.00;;;21.84;41.04
16613;BME280;8419;52.358;9.752;2023-04-23T04:57:54;100107.00;;;21.76;41.10
16613;BME280;8419;52.358;9.752;2023-04-23T05:00:39;100113.00;;;21.77;41.10
16613;BME280;8419;52.358;9.752;2023-04-23T05:03:25;100111.00;;;21.79;40.95
16613;BME280;8419;52.358;9.752;2023-04-23T05:06:11;100124.00;;;21.80;40.88
16613;BME280;8419;52.358;9.752;2023-04-23T05:08:56;100125.00;;;21.77;40.82
16613;BME280;8419;52.358;9.752;2023-04-23T05:11:42;100121.00;;;21.67;40.90
16613;BME280;8419;52.358;9.752;2023-04-23T05:14:27;100120.00;;;21.65;40.82
16613;BME280;8419;52.358;9.752;2023-04-23T05:17:13;100120.00;;;21.52;40.92
16613;BME280;8419;52.358;9.752;2023-04-23T05:19:59;100125.00;;;21.47;40.91
16613;BME280;8419;52.358;9.752;2023-04-23T05:22:44;100118.00;;;21.44;40.89
16613;BME280;8419;52.358;9.752;2023-04-23T05:25:32;100123.00;;;21.43;40.84
16613;BME280;8419;52.358;9.752;2023-04-23T05:28:19;100129.00;;;21.51;40.70
16613;BME280;8419;52.358;9.752;2023-04-23T05:31:04;100114.00;;;21.48;40.67
16613;BME280;8419;52.358;9.752;2023-04-23T05:33:50;100120.00;;;21.52;40.57
16613;BME280;8419;52.358;9.752;2023-04-23T05:36:36;100124.00;;;21.48;40.55
16613;BME280;8419;52.358;9.752;2023-04-23T05:39:21;100116.00;;;21.48;40.57
16613;BME280;8419;52.358;9.752;2023-04-23T05:42:07;100115.00;;;21.47;40.49
16613;BME280;8419;52.358;9.752;2023-04-23T05:44:54;100118.00;;;21.49;40.48
16613;BME280;8419;52.358;9.752;2023-04-23T05:47:45;100120.00;;;21.55;40.38
16613;BME280;8419;52.358;9.752;2023-04-23T05:50:30;100126.00;;;21.65;40.16
16613;BME280;8419;52.358;9.752;2023-04-23T05:53:15;100125.00;;;21.50;40.36
16613;BME280;8419;52.358;9.752;2023-04-23T05:56:01;100142.00;;;21.49;40.32
16613;BME280;8419;52.358;9.752;2023-04-23T05:58:47;100141.00;;;21.42;40.27
16613;BME280;8419;52.358;9.752;2023-04-23T06:01:35;100148.00;;;21.30;40.40
16613;BME280;8419;52.358;9.752;2023-04-23T06:04:20;100148.00;;;21.33;40.35
16613;BME280;8419;52.358;9.752;2023-04-23T06:07:06;100152.00;;;21.29;40.35
16613;BME280;8419;52.358;9.752;2023-04-23T06:09:51;100144.00;;;21.34;40.24
16613;BME280;8419;52.358;9.752;2023-04-23T06:12:36;100143.00;;;21.36;40.24
16613;BME280;8419;52.358;9.752;2023-04-23T06:15:23;100154.00;;;21.37;40.18
16613;BME280;8419;52.358;9.752;2023-04-23T06:18:11;100144.00;;;21.39;40.17
16613;BME280;8419;52.358;9.752;2023-04-23T06:20:58;100148.00;;;21.40;40.22
16613;BME280;8419;52.358;9.752;2023-04-23T06:23:48;100150.00;;;21.54;40.02
16613;BME280;8419;52.358;9.752;2023-04-23T06:26:34;100150.00;;;21.59;39.91
16613;BME280;8419;52.358;9.752;2023-04-23T06:29:19;100143.00;;;21.53;39.99
16613;BME280;8419;52.358;9.752;2023-04-23T06:32:05;100143.00;;;21.53;39.95
16613;BME280;8419;52.358;9.752;2023-04-23T06:34:51;100133.00;;;21.50;39.95
16613;BME280;8419;52.358;9.752;2023-04-23T06:37:39;100135.00;;;21.64;39.67
16613;BME280;8419;52.358;9.752;2023-04-23T06:40:25;100147.00;;;21.71;39.55
16613;BME280;8419;52.358;9.752;2023-04-23T06:43:12;100144.00;;;21.73;39.53
16613;BME280;8419;52.358;9.752;2023-04-23T06:46:00;100148.00;;;21.83;39.45
16613;BME280;8419;52.358;9.752;2023-04-23T06:48:45;100134.00;;;22.03;39.30
16613;BME280;8419;52.358;9.752;2023-04-23T06:51:36;100139.00;;;22.18;39.07
16613;BME280;8419;52.358;9.752;2023-04-23T06:54:22;100142.00;;;22.31;38.86
16613;BME280;8419;52.358;9.752;2023-04-23T06:57:08;100142.00;;;22.41;38.75
16613;BME280;8419;52.358;9.752;2023-04-23T06:59:55;100135.00;;;22.47;38.63
16613;BME280;8419;52.358;9.752;2023-04-23T07:02:40;100142.00;;;22.63;38.45
16613;BME280;8419;52.358;9.752;2023-04-23T07:05:26;100132.00;;;22.79;38.24
16613;BME280;8419;52.358;9.752;2023-04-23T07:08:12;100132.00;;;22.86;38.16
16613;BME280;8419;52.358;9.752;2023-04-23T07:10:59;100136.00;;;22.85;38.05
16613;BME280;8419;52.358;9.752;2023-04-23T07:13:45;100124.00;;;22.84;38.10
16613;BME280;8419;52.358;9.752;2023-04-23T07:16:30;100113.00;;;23.00;37.99
16613;BME280;8419;52.358;9.752;2023-04-23T07:19:17;100120.00;;;23.21;37.69
16613;BME280;8419;52.358;9.752;2023-04-23T07:22:05;100128.00;;;23.28;37.65
16613;BME280;8419;52.358;9.752;2023-04-23T07:24:50;100123.00;;;23.35;37.51
16613;BME280;8419;52.358;9.752;2023-04-23T07:27:36;100128.00;;;23.43;37.40
16613;BME280;8419;52.358;9.752;2023-04-23T07:30:23;100126.00;;;23.47;37.29
16613;BME280;8419;52.358;9.752;2023-04-23T07:33:09;100114.00;;;23.45;37.30
16613;BME280;8419;52.358;9.752;2023-04-23T07:35:59;100118.00;;;23.56;37.13
16613;BME280;8419;52.358;9.752;2023-04-23T07:38:45;100113.00;;;23.65;37.00
16613;BME280;8419;52.358;9.752;2023-04-23T07:41:30;100121.00;;;23.68;36.97
16613;BME280;8419;52.358;9.752;2023-04-23T07:44:16;100120.00;;;23.77;36.83
16613;BME280;8419;52.358;9.752;2023-04-23T07:47:01;100122.00;;;23.82;36.78
16613;BME280;8419;52.358;9.752;2023-04-23T07:49:47;100114.00;;;23.88;36.63
16613;BME280;8419;52.358;9.752;2023-04-23T07:52:32;100118.00;;;23.81;36.70
16613;BME280;8419;52.358;9.752;2023-04-23T07:55:17;100114.00;;;23.82;36.63
16613;BME280;8419;52.358;9.752;2023-04-23T07:58:04;100105.00;;;23.78;36.61
16613;BME280;8419;52.358;9.752;2023-04-23T08:00:49;100093.00;;;23.75;36.54
16613;BME280;8419;52.358;9.752;2023-04-23T08:03:34;100084.00;;;23.70;36.59
16613;BME280;8419;52.358;9.752;2023-04-23T08:06:20;100086.00;;;23.65;36.54
16613;BME280;8419;52.358;9.752;2023-04-23T08:09:05;100086.00;;;23.65;36.46
16613;BME280;8419;52.358;9.752;2023-04-23T08:11:51;100091.00;;;23.65;36.42
16613;BME280;8419;52.358;9.752;2023-04-23T08:14:36;100080.00;;;23.66;36.24
16613;BME280;8419;52.358;9.752;2023-04-23T08:17:21;100086.00;;;23.68;36.08
16613;BME280;8419;52.358;9.752;2023-04-23T08:20:09;100089.00;;;23.71;35.93
16613;BME280;8419;52.358;9.752;2023-04-23T08:22:54;100089.00;;;23.70;35.94
16613;BME280;8419;52.358;9.752;2023-04-23T08:25:40;100092.00;;;23.70;35.90
16613;BME280;8419;52.358;9.752;2023-04-23T08:28:25;100093.00;;;23.72;35.80
16613;BME280;8419;52.358;9.752;2023-04-23T08:31:11;100099.00;;;23.73;35.77
16613;BME280;8419;52.358;9.752;2023-04-23T08:33:57;100087.00;;;23.82;35.67
16613;BME280;8419;52.358;9.752;2023-04-23T08:36:42;100095.00;;;23.90;35.61
16613;BME280;8419;52.358;9.752;2023-04-23T08:39:31;100094.00;;;23.86;35.74
16613;BME280;8419;52.358;9.752;2023-04-23T08:42:22;100092.00;;;23.88;35.76
16613;BME280;8419;52.358;9.752;2023-04-23T08:45:10;100091.00;;;24.05;35.48
16613;BME280;8419;52.358;9.752;2023-04-23T08:47:58;100085.00;;;24.03;35.44
16613;BME280;8419;52.358;9.752;2023-04-23T08:50:46;100090.00;;;24.20;35.11
16613;BME280;8419;52.358;9.752;2023-04-23T08:53:32;100081.00;;;24.15;34.87
16613;BME280;8419;52.358;9.752;2023-04-23T08:56:19;100079.00;;;24.16;34.56
16613;BME280;8419;52.358;9.752;2023-04-23T08:59:06;100067.00;;;24.13;34.55
16613;BME280;8419;52.358;9.752;2023-04-23T09:01:53;100074.00;;;24.26;34.34
16613;BME280;8419;52.358;9.752;2023-04-23T09:04:40;100071.00;;;24.34;34.07
16613;BME280;8419;52.358;9.752;2023-04-23T09:07:25;100065.00;;;24.47;33.87
16613;BME280;8419;52.358;9.752;2023-04-23T09:10:12;100071.00;;;24.53;33.73
16613;BME280;8419;52.358;9.752;2023-04-23T09:12:58;100067.00;;;24.61;33.49
16613;BME280;8419;52.358;9.752;2023-04-23T09:15:43;100065.00;;;24.73;33.15
16613;BME280;8419;52.358;9.752;2023-04-23T09:18:30;100056.00;;;24.80;32.79
16613;BME280;8419;52.358;9.752;2023-04-23T09:21:15;100068.00;;;24.86;32.53
16613;BME280;8419;52.358;9.752;2023-04-23T09:24:04;100060.00;;;24.86;32.40
16613;BME280;8419;52.358;9.752;2023-04-23T09:26:51;100058.00;;;24.91;32.17
16613;BME280;8419;52.358;9.752;2023-04-23T09:29:43;100054.00;;;24.99;31.99
16613;BME280;8419;52.358;9.752;2023-04-23T09:32:31;100051.00;;;25.03;31.73
16613;BME280;8419;52.358;9.752;2023-04-23T09:35:18;100050.00;;;25.12;31.54
16613;BME280;8419;52.358;9.752;2023-04-23T09:38:03;100055.00;;;25.22;31.38
16613;BME280;8419;52.358;9.752;2023-04-23T09:40:51;100052.00;;;25.28;31.22
16613;BME280;8419;52.358;9.752;2023-04-23T09:43:41;100054.00;;;25.31;31.13
16613;BME280;8419;52.358;9.752;2023-04-23T09:46:33;100050.00;;;25.42;31.00
16613;BME280;8419;52.358;9.752;2023-04-23T09:49:21;100046.00;;;25.56;30.79
16613;BME280;8419;52.358;9.752;2023-04-23T09:52:07;100042.00;;;25.63;30.38
16613;BME280;8419;52.358;9.752;2023-04-23T09:54:55;100047.00;;;25.66;30.28
16613;BME280;8419;52.358;9.752;2023-04-23T09:57:43;100041.00;;;25.74;30.09
16613;BME280;8419;52.358;9.752;2023-04-23T10:00:33;100044.00;;;25.86;29.97
16613;BME280;8419;52.358;9.752;2023-04-23T10:03:26;100038.00;;;26.05;29.52
16613;BME280;8419;52.358;9.752;2023-04-23T10:06:13;100038.00;;;26.03;29.61
16613;BME280;8419;52.358;9.752;2023-04-23T10:08:59;100036.00;;;26.15;29.51
16613;BME280;8419;52.358;9.752;2023-04-23T10:11:45;100026.00;;;26.24;29.33
16613;BME280;8419;52.358;9.752;2023-04-23T10:14:30;100016.00;;;26.29;29.20
16613;BME280;8419;52.358;9.752;2023-04-23T10:17:16;100013.00;;;26.42;29.07
16613;BME280;8419;52.358;9.752;2023-04-23T10:20:01;100018.00;;;26.53;28.91
16613;BME280;8419;52.358;9.752;2023-04-23T10:22:47;100017.00;;;26.63;28.83
16613;BME280;8419;52.358;9.752;2023-04-23T10:25:35;100018.00;;;26.75;28.61
16613;BME280;8419;52.358;9.752;2023-04-23T10:28:24;100012.00;;;26.88;28.52
16613;BME280;8419;52.358;9.752;2023-04-23T10:31:17;100016.00;;;27.11;28.34
16613;BME280;8419;52.358;9.752;2023-04-23T10:34:03;100013.00;;;27.36;28.02
16613;BME280;8419;52.358;9.752;2023-04-23T10:36:50;100008.00;;;27.59;27.73
16613;BME280;8419;52.358;9.752;2023-04-23T10:39:37;100010.00;;;27.78;27.46
16613;BME280;8419;52.358;9.752;2023-04-23T10:42:27;100002.00;;;27.88;27.28
16613;BME280;8419;52.358;9.752;2023-04-23T10:45:14;99999.00;;;27.90;27.05
16613;BME280;8419;52.358;9.752;2023-04-23T10:48:00;100003.00;;;28.00;26.97
16613;BME280;8419;52.358;9.752;2023-04-23T10:50:45;100009.00;;;28.25;26.81
16613;BME280;8419;52.358;9.752;2023-04-23T10:53:31;100002.00;;;28.49;26.53
16613;BME280;8419;52.358;9.752;2023-04-23T10:56:17;99997.00;;;28.67;26.40
16613;BME280;8419;52.358;9.752;2023-04-23T10:59:05;99986.00;;;28.87;26.23
16613;BME280;8419;52.358;9.752;2023-04-23T11:01:51;99992.00;;;29.12;25.96
16613;BME280;8419;52.358;9.752;2023-04-23T11:04:44;99990.00;;;29.36;25.43
16613;BME280;8419;52.358;9.752;2023-04-23T11:07:30;99986.00;;;29.62;24.81
16613;BME280;8419;52.358;9.752;2023-04-23T11:10:16;99983.00;;;29.71;24.29
16613;BME280;8419;52.358;9.752;2023-04-23T11:13:22;99996.00;;;29.89;23.96
16613;BME280;8419;52.358;9.752;2023-04-23T11:16:19;99978.00;;;30.11;23.83
16613;BME280;8419;52.358;9.752;2023-04-23T11:19:08;99991.00;;;30.09;23.31
16613;BME280;8419;52.358;9.752;2023-04-23T11:21:56;99988.00;;;30.07;23.36
16613;BME280;8419;52.358;9.752;2023-04-23T11:24:44;99983.00;;;29.96;23.43
16613;BME280;8419;52.358;9.752;2023-04-23T11:27:30;99993.00;;;29.81;23.53
16613;BME280;8419;52.358;9.752;2023-04-23T11:30:17;99986.00;;;29.81;23.67
16613;BME280;8419;52.358;9.752;2023-04-23T11:33:04;99981.00;;;30.11;23.31
16613;BME280;8419;52.358;9.752;2023-04-23T11:35:50;99973.00;;;30.53;22.90
16613;BME280;8419;52.358;9.752;2023-04-23T11:38:36;99975.00;;;30.76;22.65
16613;BME280;8419;52.358;9.752;2023-04-23T11:41:23;99974.00;;;30.82;22.51
16613;BME280;8419;52.358;9.752;2023-04-23T11:44:11;99963.00;;;30.81;22.52
16613;BME280;8419;52.358;9.752;2023-04-23T11:46:59;99961.00;;;30.94;22.46
16613;BME280;8419;52.358;9.752;2023-04-23T11:49:49;99961.00;;;31.14;22.31
16613;BME280;8419;52.358;9.752;2023-04-23T11:52:34;99956.00;;;31.20;22.06
16613;BME280;8419;52.358;9.752;2023-04-23T11:55:21;99951.00;;;30.91;22.22
16613;BME280;8419;52.358;9.752;2023-04-23T11:58:06;99957.00;;;30.50;22.29
16613;BME280;8419;52.358;9.752;2023-04-23T12:00:57;99954.00;;;30.33;22.46
16613;BME280;8419;52.358;9.752;2023-04-23T12:03:48;99946.00;;;30.18;22.65
16613;BME280;8419;52.358;9.752;2023-04-23T12:06:33;99943.00;;;30.13;22.70
16613;BME280;8419;52.358;9.752;2023-04-23T12:09:20;99946.00;;;29.87;22.70
16613;BME280;8419;52.358;9.752;2023-04-23T12:12:06;99941.00;;;29.70;22.94
16613;BME280;8419;52.358;9.752;2023-04-23T12:15:05;99945.00;;;29.86;22.84
16613;BME280;8419;52.358;9.752;2023-04-23T12:17:51;99940.00;;;30.20;22.69
16613;BME280;8419;52.358;9.752;2023-04-23T12:20:44;99945.00;;;30.50;22.30
16613;BME280;8419;52.358;9.752;2023-04-23T12:23:30;99940.00;;;30.44;22.24
16613;BME280;8419;52.358;9.752;2023-04-23T12:26:20;99945.00;;;30.29;22.40
16613;BME280;8419;52.358;9.752;2023-04-23T12:29:06;99935.00;;;30.31;22.45
16613;BME280;8419;52.358;9.752;2023-04-23T12:31:56;99934.00;;;30.37;22.45
16613;BME280;8419;52.358;9.752;2023-04-23T12:34:54;99930.00;;;30.28;22.57
16613;BME280;8419;52.358;9.752;2023-04-23T12:37:39;99919.00;;;30.15;22.78
16613;BME280;8419;52.358;9.752;2023-04-23T12:40:26;99918.00;;;29.93;22.88
16613;BME280;8419;52.358;9.752;2023-04-23T12:43:11;99920.00;;;29.71;23.09
16613;BME280;8419;52.358;9.752;2023-04-23T12:45:56;99916.00;;;29.57;23.28
16613;BME280;8419;52.358;9.752;2023-04-23T12:48:42;99920.00;;;29.44;23.22
16613;BME280;8419;52.358;9.752;2023-04-23T12:51:27;99921.00;;;29.50;23.10
16613;BME280;8419;52.358;9.752;2023-04-23T12:54:15;99908.00;;;29.62;22.93
16613;BME280;8419;52.358;9.752;2023-04-23T12:57:02;99912.00;;;29.94;22.70
16613;BME280;8419;52.358;9.752;2023-04-23T12:59:47;99913.00;;;29.95;22.73
16613;BME280;8419;52.358;9.752;2023-04-23T13:02:34;99918.00;;;29.75;23.11
16613;BME280;8419;52.358;9.752;2023-04-23T13:05:20;99907.00;;;29.50;23.64
16613;BME280;8419;52.358;9.752;2023-04-23T13:08:05;99912.00;;;29.31;24.07
16613;BME280;8419;52.358;9.752;2023-04-23T13:10:51;99911.00;;;29.26;24.36
16613;BME280;8419;52.358;9.752;2023-04-23T13:13:36;99904.00;;;29.22;24.44
16613;BME280;8419;52.358;9.752;2023-04-23T13:16:21;99902.00;;;29.09;24.58
16613;BME280;8419;52.358;9.752;2023-04-23T13:19:08;99894.00;;;29.01;24.66
16613;BME280;8419;52.358;9.752;2023-04-23T13:21:53;99896.00;;;28.85;24.69
16613;BME280;8419;52.358;9.752;2023-04-23T13:24:38;99892.00;;;28.66;24.69
16613;BME280;8419;52.358;9.752;2023-04-23T13:27:26;99894.00;;;28.41;24.81
16613;BME280;8419;52.358;9.752;2023-04-23T13:30:13;99907.00;;;28.20;24.95
16613;BME280;8419;52.358;9.752;2023-04-23T13:32:59;99935.00;;;27.97;25.22
16613;BME280;8419;52.358;9.752;2023-04-23T13:35:44;99937.00;;;27.52;26.53
16613;BME280;8419;52.358;9.752;2023-04-23T13:38:30;99941.00;;;26.72;28.34
16613;BME280;8419;52.358;9.752;2023-04-23T13:41:15;99933.00;;;26.02;30.19
16613;BME280;8419;52.358;9.752;2023-04-23T13:44:03;99952.00;;;25.42;31.30
16613;BME280;8419;52.358;9.752;2023-04-23T13:46:50;99956.00;;;24.85;32.22
16613;BME280;8419;52.358;9.752;2023-04-23T13:49:36;99942.00;;;24.38;33.25
16613;BME280;8419;52.358;9.752;2023-04-23T13:52:21;99958.00;;;23.89;34.38
16613;BME280;8419;52.358;9.752;2023-04-23T13:55:10;99946.00;;;23.32;35.23
16613;BME280;8419;52.358;9.752;2023-04-23T13:57:55;99938.00;;;22.95;36.25
16613;BME280;8419;52.358;9.752;2023-04-23T14:00:43;99935.00;;;22.61;36.93
16613;BME280;8419;52.358;9.752;2023-04-23T14:03:30;99929.00;;;22.34;37.56
16613;BME280;8419;52.358;9.752;2023-04-23T14:06:16;99923.00;;;22.07;38.56
16613;BME280;8419;52.358;9.752;2023-04-23T14:09:03;99920.00;;;21.92;38.82
16613;BME280;8419;52.358;9.752;2023-04-23T14:11:50;99905.00;;;21.88;39.02
16613;BME280;8419;52.358;9.752;2023-04-23T14:14:38;99906.00;;;21.95;38.86
16613;BME280;8419;52.358;9.752;2023-04-23T14:17:23;99896.00;;;22.11;38.81
16613;BME280;8419;52.358;9.752;2023-04-23T14:20:13;99892.00;;;22.32;38.59
16613;BME280;8419;52.358;9.752;2023-04-23T14:23:03;99880.00;;;22.47;38.60
16613;BME280;8419;52.358;9.752;2023-04-23T14:25:58;99879.00;;;22.77;38.28
16613;BME280;8419;52.358;9.752;2023-04-23T14:28:50;99876.00;;;23.07;38.02
16613;BME280;8419;52.358;9.752;2023-04-23T14:31:36;99871.00;;;23.38;37.85
16613;BME280;8419;52.358;9.752;2023-04-23T14:34:22;99870.00;;;23.63;37.69
16613;BME280;8419;52.358;9.752;2023-04-23T14:37:09;99861.00;;;23.92;37.39
16613;BME280;8419;52.358;9.752;2023-04-23T14:39:55;99859.00;;;24.13;37.26
16613;BME280;8419;52.358;9.752;2023-04-23T14:42:40;99854.00;;;24.54;36.90
16613;BME280;8419;52.358;9.752;2023-04-23T14:45:26;99853.00;;;24.83;36.73
16613;BME280;8419;52.358;9.752;2023-04-23T14:48:15;99838.00;;;25.09;36.63
16613;BME280;8419;52.358;9.752;2023-04-23T14:51:00;99839.00;;;25.32;36.57